Time;durP1;ratioP1;P1;durP2;ratioP2;P2;SDS_P1;SDS_P2;PMS_P1;PMS_P2;Temp;Humidity;BMP_temperature;BMP_pressure;BME280_temperature;BME280_humidity;BME280_pressure;Samples;Min_cycle;Max_cycle;Signal;HPM_P1;HPM_P2
2023/03/27 00:05:09;;;;;;;3.25;0.80;;;;;;;18.80;30.86;101466.38;16123338;19;129697;-41
2023/03/27 00:10:31;;;;;;;3.22;0.85;;;;;;;18.77;31.15;101482.41;16122508;19;130440;-43
2023/03/27 00:15:54;;;;;;;4.10;0.70;;;;;;;18.75;31.13;101483.72;16124222;19;130635;-41
2023/03/27 00:21:16;;;;;;;1.63;0.68;;;;;;;18.73;31.43;101495.00;16127668;19;129707;-41
2023/03/27 00:26:39;;;;;;;2.92;0.70;;;;;;;18.72;31.23;101509.13;16127515;19;129529;-41
2023/03/27 00:32:01;;;;;;;2.63;0.73;;;;;;;18.69;31.36;101515.13;16121694;19;130167;-41
2023/03/27 00:37:23;;;;;;;1.88;0.60;;;;;;;18.68;31.11;101507.88;16123887;19;129900;-50
2023/03/27 00:42:48;;;;;;;2.65;0.88;;;;;;;18.67;31.53;101520.91;16122846;19;130682;-48
2023/03/27 00:48:10;;;;;;;3.30;0.70;;;;;;;18.64;31.22;101524.13;16120329;19;130875;-49
2023/03/27 00:53:32;;;;;;;1.50;0.57;;;;;;;18.63;31.50;101514.13;16120310;19;130735;-48
2023/03/27 00:58:59;;;;;;;1.65;0.50;;;;;;;18.63;31.67;101532.69;16121909;19;131671;-49
2023/03/27 01:04:21;;;;;;;3.45;0.50;;;;;;;18.61;31.70;101532.91;16122177;19;129644;-48
2023/03/27 01:09:44;;;;;;;1.65;0.85;;;;;;;18.58;31.73;101550.00;16118050;19;129243;-50
2023/03/27 01:15:09;;;;;;;0.82;0.30;;;;;;;18.57;31.91;101554.69;16120564;19;130667;-49
2023/03/27 01:21:08;;;;;;;3.58;0.50;;;;;;;18.58;31.86;101563.88;16116125;19;129708;-47
2023/03/27 01:26:50;;;;;;;1.70;0.40;;;;;;;18.54;31.61;101571.78;16118031;19;130259;-48
2023/03/27 01:32:33;;;;;;;1.50;0.60;;;;;;;18.52;31.80;101573.97;16119371;19;129544;-51
2023/03/27 01:38:37;;;;;;;2.03;0.47;;;;;;;18.51;31.98;101579.72;16120604;19;131120;-48
2023/03/27 01:44:22;;;;;;;2.20;0.57;;;;;;;18.48;31.81;101577.38;16103477;19;129551;-49
2023/03/27 01:49:53;;;;;;;2.42;0.60;;;;;;;18.46;31.93;101575.69;16103952;19;129987;-51
2023/03/27 01:55:22;;;;;;;2.80;0.70;;;;;;;18.42;31.67;101580.00;16108392;19;130948;-49
2023/03/27 02:00:51;;;;;;;0.75;0.30;;;;;;;18.41;32.05;101586.63;16106963;19;129704;-50
2023/03/27 02:06:19;;;;;;;2.55;0.50;;;;;;;18.40;31.97;101586.88;16108082;19;129087;-51
2023/03/27 02:12:15;;;;;;;1.38;0.32;;;;;;;18.40;31.92;101597.94;16109148;19;130561;-48
2023/03/27 02:17:43;;;;;;;2.38;0.68;;;;;;;18.36;32.02;101614.13;16119390;19;130454;-46
2023/03/27 02:23:06;;;;;;;2.17;0.60;;;;;;;18.35;31.94;101615.19;16117619;19;131139;-50
2023/03/27 02:28:37;;;;;;;3.63;0.50;;;;;;;18.34;31.73;101629.28;16112627;19;129614;-51
2023/03/27 02:34:03;;;;;;;0.98;0.40;;;;;;;18.31;31.75;101644.44;16117731;19;130436;-51
2023/03/27 02:39:47;;;;;;;3.47;0.68;;;;;;;18.25;31.98;101661.97;16117353;19;130416;-52
2023/03/27 02:45:18;;;;;;;3.13;0.80;;;;;;;18.20;31.81;101659.03;16115273;19;130149;-51
2023/03/27 02:50:57;;;;;;;1.88;0.65;;;;;;;18.18;31.80;101656.47;16110758;19;131608;-51
2023/03/27 02:56:22;;;;;;;2.65;0.50;;;;;;;18.14;31.91;101656.06;16115209;19;130230;-50
2023/03/27 03:01:44;;;;;;;2.13;0.47;;;;;;;18.12;31.51;101661.00;16109885;19;130942;-50
2023/03/27 03:07:08;;;;;;;2.30;0.50;;;;;;;18.15;31.93;101671.63;16114722;19;129983;-51
2023/03/27 03:12:30;;;;;;;2.42;0.50;;;;;;;18.14;31.94;101677.41;16113821;19;130781;-44
2023/03/27 03:17:52;;;;;;;1.85;0.50;;;;;;;18.13;31.76;101679.31;16110902;19;129867;-50
2023/03/27 03:23:14;;;;;;;0.93;0.22;;;;;;;18.12;31.86;101710.00;16111432;19;131602;-49
2023/03/27 03:28:36;;;;;;;1.35;0.40;;;;;;;18.11;31.74;101722.16;16109677;19;130269;-52
2023/03/27 03:33:58;;;;;;;2.15;0.60;;;;;;;18.06;31.53;101728.34;16111911;19;130937;-49
2023/03/27 03:39:21;;;;;;;1.70;0.30;;;;;;;18.03;31.84;101728.78;16116296;19;134908;-52
2023/03/27 03:44:43;;;;;;;1.38;0.40;;;;;;;18.01;31.81;101728.16;16109202;19;134937;-48
2023/03/27 03:50:05;;;;;;;2.45;0.63;;;;;;;18.00;31.78;101732.00;16106262;19;130017;-48
2023/03/27 03:55:28;;;;;;;1.98;0.47;;;;;;;18.00;31.74;101740.31;16109818;19;129637;-49
2023/03/27 04:00:50;;;;;;;1.80;0.38;;;;;;;18.00;31.64;101741.19;16107348;19;131961;-43
2023/03/27 04:06:12;;;;;;;2.05;0.45;;;;;;;18.01;31.95;101761.38;16109143;19;130172;-49
2023/03/27 04:11:34;;;;;;;2.13;0.50;;;;;;;17.99;31.86;101766.28;16106485;19;129998;-47
2023/03/27 04:16:58;;;;;;;1.10;0.32;;;;;;;17.96;31.56;101770.38;16103394;19;130709;-44
2023/03/27 04:22:21;;;;;;;1.55;0.50;;;;;;;17.94;31.52;101772.50;16107473;19;130710;-42
2023/03/27 04:27:43;;;;;;;1.73;0.50;;;;;;;17.92;31.74;101782.09;16107988;19;130224;-43
2023/03/27 04:33:06;;;;;;;1.60;0.32;;;;;;;17.91;31.56;101805.31;16107821;19;129446;-41
2023/03/27 04:38:30;;;;;;;1.42;0.38;;;;;;;17.90;31.54;101803.63;16116565;19;130213;-41
2023/03/27 04:43:52;;;;;;;1.80;0.32;;;;;;;17.88;32.12;101814.91;16121663;19;129734;-41
2023/03/27 04:49:19;;;;;;;1.48;0.30;;;;;;;17.90;31.78;101820.22;16118437;19;132138;-41
2023/03/27 04:54:41;;;;;;;0.75;0.30;;;;;;;17.89;32.00;101813.00;16121451;19;131631;-40
2023/03/27 05:00:22;;;;;;;0.68;0.35;;;;;;;17.89;32.30;101816.63;16121199;19;130159;-41
2023/03/27 05:05:48;;;;;;;1.88;0.60;;;;;;;17.89;31.94;101830.47;16117897;19;129538;-40
2023/03/27 05:11:10;;;;;;;1.38;0.30;;;;;;;18.11;32.22;101850.38;16121892;19;129785;-44
2023/03/27 05:16:34;;;;;;;5.88;0.43;;;;;;;18.50;31.89;101846.78;16120803;19;129720;-46
2023/03/27 05:21:56;;;;;;;8.23;0.60;;;;;;;18.77;32.11;101864.94;16121232;19;130590;-41
2023/03/27 05:27:19;;;;;;;8.13;0.52;;;;;;;18.94;31.86;101875.47;16123830;19;130771;-43
2023/03/27 05:32:47;;;;;;;7.10;0.77;;;;;;;19.05;31.53;101887.75;16118993;19;130449;-42
2023/03/27 05:38:09;;;;;;;11.20;0.93;;;;;;;19.07;31.63;101885.59;16120743;19;130854;-41
2023/03/27 05:43:31;;;;;;;3.92;0.50;;;;;;;19.04;31.59;101886.91;16116342;19;129422;-41
2023/03/27 05:48:52;;;;;;;4.43;0.73;;;;;;;18.98;31.53;101890.56;16113156;19;130514;-41
2023/03/27 05:54:14;;;;;;;7.40;0.70;;;;;;;18.92;31.66;101897.03;16117741;19;129546;-40
2023/03/27 05:59:36;;;;;;;4.32;0.80;;;;;;;18.83;31.76;101906.72;16113609;19;130346;-41
2023/03/27 06:05:00;;;;;;;6.95;0.70;;;;;;;18.74;32.05;101928.28;16117873;19;129681;-43
2023/03/27 06:10:22;;;;;;;9.00;0.80;;;;;;;18.64;32.06;101936.25;16116351;19;131628;-41
2023/03/27 06:15:44;;;;;;;8.13;1.35;;;;;;;18.55;31.79;101938.41;16118688;19;129929;-41
2023/03/27 06:21:06;;;;;;;5.72;0.80;;;;;;;18.50;31.99;101949.31;16117121;19;129014;-42
2023/03/27 06:26:27;;;;;;;8.13;0.80;;;;;;;18.46;32.32;101957.22;16116741;19;129562;-42
2023/03/27 06:31:50;;;;;;;4.32;0.60;;;;;;;18.46;31.97;101963.59;16118919;19;129641;-42
2023/03/27 06:37:12;;;;;;;4.18;0.70;;;;;;;18.44;32.48;101987.06;16119321;19;131167;-42
2023/03/27 06:42:35;;;;;;;5.07;0.80;;;;;;;18.42;32.38;101987.28;16115363;19;129624;-42
2023/03/27 06:47:59;;;;;;;2.97;0.55;;;;;;;18.43;32.56;101985.34;16117410;19;129756;-45
2023/03/27 06:53:40;;;;;;;3.00;0.55;;;;;;;18.54;32.57;101984.66;16114878;19;130668;-42
2023/03/27 06:59:02;;;;;;;6.25;0.70;;;;;;;18.70;32.54;101986.09;16115871;19;130083;-41
2023/03/27 07:04:24;;;;;;;4.63;0.70;;;;;;;18.92;32.16;101988.53;16116648;19;129627;-42
2023/03/27 07:09:46;;;;;;;1.35;0.35;;;;;;;19.18;32.39;101986.66;16105840;19;130470;-43
2023/03/27 07:15:09;;;;;;;4.18;0.80;;;;;;;19.43;32.28;101994.19;16115546;19;129915;-41
2023/03/27 07:20:32;;;;;;;3.75;0.65;;;;;;;19.86;32.03;102003.66;16114629;19;130486;-42
2023/03/27 07:25:59;;;;;;;3.45;0.60;;;;;;;20.34;31.48;102029.88;16114979;19;129484;-43
2023/03/27 07:31:21;;;;;;;3.83;0.73;;;;;;;20.73;31.30;102025.78;16114536;19;130465;-42
2023/03/27 07:36:46;;;;;;;3.60;0.50;;;;;;;20.99;31.07;102048.75;16112627;19;129045;-44
2023/03/27 07:42:08;;;;;;;3.45;0.35;;;;;;;21.19;30.69;102048.47;16113216;19;129410;-42
2023/03/27 07:47:30;;;;;;;3.33;0.68;;;;;;;21.33;30.55;102054.72;16114238;19;129453;-42
2023/03/27 07:52:52;;;;;;;1.67;0.43;;;;;;;21.41;30.73;102064.66;16112701;19;130340;-41
2023/03/27 07:58:13;;;;;;;2.25;0.45;;;;;;;21.37;30.58;102052.28;16114389;19;129550;-42
2023/03/27 08:03:37;;;;;;;1.55;0.40;;;;;;;21.30;29.83;102062.66;16113928;19;130024;-40
2023/03/27 08:09:00;;;;;;;3.38;0.40;;;;;;;21.17;29.66;102056.22;16114689;19;129171;-40
2023/03/27 08:14:25;;;;;;;13.93;0.60;;;;;;;21.20;29.44;102069.66;16124984;19;129716;-40
2023/03/27 08:19:47;;;;;;;11.40;0.90;;;;;;;21.42;29.02;102071.91;16129842;19;129553;-44
2023/03/27 08:25:09;;;;;;;6.57;0.90;;;;;;;21.60;28.16;102086.88;16130546;19;129557;-40
2023/03/27 08:30:31;;;;;;;3.40;0.77;;;;;;;21.39;28.33;102094.66;16125628;19;129745;-41
2023/03/27 08:35:56;;;;;;;10.95;0.82;;;;;;;21.02;28.32;102123.41;16126221;19;129894;-43
2023/03/27 08:41:29;;;;;;;8.32;0.80;;;;;;;20.62;28.03;102117.44;16128244;19;129359;-42
2023/03/27 08:46:56;;;;;;;4.97;1.00;;;;;;;20.37;28.87;102115.56;16127197;19;129241;-41
2023/03/27 08:52:25;;;;;;;3.47;0.90;;;;;;;20.24;28.99;102122.13;16128254;19;129295;-42
2023/03/27 08:57:49;;;;;;;3.28;0.98;;;;;;;20.20;29.04;102109.75;16124975;19;131334;-42
2023/03/27 09:03:15;;;;;;;1.23;0.50;;;;;;;20.23;28.69;102114.88;16123549;19;130722;-41
2023/03/27 09:08:51;;;;;;;5.22;0.93;;;;;;;20.32;28.49;102118.19;16122939;19;130438;-42
2023/03/27 09:14:24;;;;;;;3.78;1.08;;;;;;;20.45;28.63;102123.59;16123676;19;129703;-45
2023/03/27 09:19:57;;;;;;;4.45;0.90;;;;;;;20.53;28.40;102114.97;16121295;19;129191;-44
2023/03/27 09:25:31;;;;;;;5.10;1.10;;;;;;;20.53;28.13;102126.09;16121191;19;129522;-42
2023/03/27 09:30:53;;;;;;;2.58;0.93;;;;;;;20.44;28.20;102120.00;16123636;19;129616;-43
2023/03/27 09:36:16;;;;;;;6.18;0.80;;;;;;;20.36;27.94;102119.44;16122322;19;135643;-42
2023/03/27 09:41:43;;;;;;;2.70;0.88;;;;;;;20.26;28.17;102126.38;16121315;19;129834;-45
2023/03/27 09:47:16;;;;;;;3.10;0.65;;;;;;;20.14;28.11;102122.63;16121329;19;129372;-43
2023/03/27 09:52:40;;;;;;;3.03;0.63;;;;;;;20.00;27.83;102138.53;16119328;19;129709;-43
2023/03/27 09:58:23;;;;;;;7.13;0.98;;;;;;;19.88;27.85;102134.78;16118322;19;129555;-44
2023/03/27 10:03:54;;;;;;;9.48;1.15;;;;;;;19.73;27.66;102141.53;16117066;19;129601;-41
2023/03/27 10:09:28;;;;;;;5.63;1.20;;;;;;;19.58;28.09;102158.47;16116085;19;129569;-43
2023/03/27 10:14:50;;;;;;;8.25;1.20;;;;;;;19.45;27.60;102147.44;16116968;19;129911;-41
2023/03/27 10:20:18;;;;;;;8.50;1.05;;;;;;;19.34;27.89;102152.63;16121402;19;130563;-41
2023/03/27 10:25:49;;;;;;;3.47;0.80;;;;;;;19.27;27.84;102165.69;16120145;19;135839;-42
2023/03/27 10:31:29;;;;;;;4.38;0.85;;;;;;;19.20;27.43;102185.09;16119249;19;128919;-50
2023/03/27 10:36:53;;;;;;;4.95;0.85;;;;;;;19.13;27.47;102194.50;16118185;19;131564;-48
2023/03/27 10:42:17;;;;;;;5.47;0.80;;;;;;;19.13;27.64;102188.97;16118707;19;129680;-50
2023/03/27 10:47:49;;;;;;;4.88;0.90;;;;;;;19.16;27.45;102194.91;16119092;19;130062;-51
2023/03/27 10:53:18;;;;;;;4.00;0.65;;;;;;;19.19;27.71;102188.09;16116629;19;129041;-50
2023/03/27 10:58:54;;;;;;;5.15;0.60;;;;;;;19.20;27.03;102228.66;16113659;19;130248;-40
2023/03/27 11:04:24;;;;;;;2.63;0.67;;;;;;;19.15;27.54;102231.22;16118479;19;130632;-43
2023/03/27 11:09:56;;;;;;;4.28;0.40;;;;;;;19.16;26.99;102232.94;16118084;19;129748;-45
2023/03/27 11:15:41;;;;;;;1.55;0.40;;;;;;;19.14;27.01;102237.84;16117253;19;130158;-42
2023/03/27 11:21:24;;;;;;;4.47;0.40;;;;;;;19.17;26.77;102237.41;16113419;19;130176;-44
2023/03/27 11:26:52;;;;;;;3.45;0.52;;;;;;;19.20;26.98;102257.22;16113945;19;129505;-42
2023/03/27 11:32:52;;;;;;;1.73;0.60;;;;;;;19.21;26.95;102253.44;16114671;19;129337;-46
2023/03/27 11:38:30;;;;;;;1.42;0.52;;;;;;;19.19;26.62;102260.25;16115603;19;129672;-42
2023/03/27 11:43:52;;;;;;;1.75;0.45;;;;;;;19.16;26.85;102263.44;16115884;19;129552;-48
2023/03/27 11:49:32;;;;;;;2.70;0.50;;;;;;;19.17;26.63;102251.28;16127685;19;132284;-42
2023/03/27 11:55:09;;;;;;;2.03;0.40;;;;;;;19.17;26.92;102249.34;16133196;19;130881;-41
2023/03/27 12:00:51;;;;;;;3.10;0.60;;;;;;;19.19;27.09;102260.25;16129383;19;130981;-43
2023/03/27 12:06:25;;;;;;;1.17;0.47;;;;;;;19.13;27.01;102272.19;16129634;19;129336;-44
2023/03/27 12:12:10;;;;;;;1.77;0.40;;;;;;;19.05;26.87;102265.81;16126448;19;129793;-44
2023/03/27 12:18:04;;;;;;;2.40;0.40;;;;;;;19.08;26.45;102268.13;16126395;19;129678;-43
2023/03/27 12:23:41;;;;;;;2.28;0.57;;;;;;;19.34;26.57;102269.16;16125109;19;128999;-43
2023/03/27 12:29:12;;;;;;;1.83;0.50;;;;;;;19.65;26.37;102269.47;16125934;19;129426;-43
2023/03/27 12:34:55;;;;;;;1.17;0.32;;;;;;;19.89;26.44;102264.22;16127454;19;129024;-41
2023/03/27 12:40:59;;;;;;;1.20;0.40;;;;;;;20.10;26.24;102263.06;16127886;19;129398;-42
2023/03/27 12:46:23;;;;;;;1.10;0.40;;;;;;;20.30;25.83;102265.72;16125173;19;130243;-50
2023/03/27 12:52:04;;;;;;;4.03;0.67;;;;;;;20.52;25.87;102256.97;16124186;19;129607;-42
2023/03/27 12:57:25;;;;;;;2.05;0.47;;;;;;;20.65;26.34;102273.53;16126387;19;129864;-44
2023/03/27 13:02:53;;;;;;;3.38;0.80;;;;;;;20.68;25.75;102284.22;16123196;19;129970;-45
2023/03/27 13:08:45;;;;;;;2.30;0.40;;;;;;;20.65;25.76;102272.72;16122415;19;130220;-43
2023/03/27 13:14:21;;;;;;;1.13;0.40;;;;;;;20.54;26.34;102261.25;16123881;19;129390;-45
2023/03/27 13:19:52;;;;;;;;;;;;;;;20.41;26.18;102275.25;16121355;19;129633;-41
2023/03/27 13:25:20;;;;;;;3.13;0.52;;;;;;;20.28;26.25;102273.41;16122457;19;130008;-45
2023/03/27 13:30:51;;;;;;;3.13;0.50;;;;;;;20.14;25.80;102267.09;16122737;19;131884;-44
2023/03/27 13:36:19;;;;;;;2.75;0.60;;;;;;;19.98;25.83;102280.41;16120424;19;130356;-45
2023/03/27 13:41:44;;;;;;;11.55;0.90;;;;;;;19.80;25.62;102283.94;16120038;19;129389;-43
2023/03/27 13:47:33;;;;;;;3.67;0.80;;;;;;;19.66;25.39;102279.50;16120905;19;130926;-42
2023/03/27 13:53:40;;;;;;;4.72;1.13;;;;;;;19.51;25.83;102282.56;16119776;19;135691;-42
2023/03/27 13:59:42;;;;;;;9.57;0.70;;;;;;;19.37;25.58;102290.09;16116292;19;129800;-42
2023/03/27 14:05:18;;;;;;;6.70;0.85;;;;;;;19.24;26.07;102296.50;16121711;19;129620;-43
2023/03/27 14:11:15;;;;;;;2.40;0.52;;;;;;;19.20;25.87;102289.69;16118020;19;129780;-42
2023/03/27 14:16:37;;;;;;;4.38;0.60;;;;;;;19.17;25.83;102288.19;16110654;19;129629;-42
2023/03/27 14:22:22;;;;;;;4.82;0.77;;;;;;;19.16;25.96;102305.06;16109123;19;131372;-43
2023/03/27 14:27:49;;;;;;;3.67;0.68;;;;;;;19.11;25.89;102308.47;16109322;19;130622;-43
2023/03/27 14:33:19;;;;;;;1.55;0.40;;;;;;;19.14;26.07;102312.72;16110419;19;129461;-42
2023/03/27 14:38:41;;;;;;;4.40;0.73;;;;;;;19.15;25.79;102322.75;16104180;19;129797;-41
2023/03/27 14:44:03;;;;;;;2.83;0.63;;;;;;;19.21;26.32;102330.22;16106932;19;131615;-41
2023/03/27 14:49:34;;;;;;;4.85;0.82;;;;;;;19.30;26.91;102326.19;16111870;19;129573;-44
2023/03/27 14:54:57;;;;;;;4.53;0.73;;;;;;;19.35;26.79;102325.53;16119343;19;129784;-46
2023/03/27 15:00:22;;;;;;;3.95;1.00;;;;;;;19.37;27.24;102338.09;16113983;19;130382;-42
2023/03/27 15:05:53;;;;;;;2.95;0.70;;;;;;;19.34;26.93;102344.09;16113775;19;131576;-42
2023/03/27 15:11:20;;;;;;;3.78;0.80;;;;;;;19.26;27.11;102347.09;16113480;19;129386;-44
2023/03/27 15:16:54;;;;;;;3.95;0.68;;;;;;;19.17;27.07;102351.16;16112168;19;131121;-42
2023/03/27 15:22:30;;;;;;;2.08;0.57;;;;;;;19.12;26.84;102353.69;16114435;19;130813;-42
2023/03/27 15:27:54;;;;;;;;;;;;;;;19.01;26.60;102360.75;16113052;19;129462;-42
2023/03/27 15:33:23;;;;;;;3.38;0.50;;;;;;;18.95;26.96;102376.34;16115387;19;131220;-42
2023/03/27 15:38:45;;;;;;;2.30;0.68;;;;;;;18.85;26.47;102376.75;16116716;19;129444;-40
2023/03/27 15:44:15;;;;;;;4.03;0.88;;;;;;;18.79;26.91;102382.28;16116405;19;130058;-43
2023/03/27 15:49:40;;;;;;;6.38;1.17;;;;;;;18.71;26.65;102386.97;16118796;19;130800;-43
2023/03/27 15:55:02;;;;;;;4.47;0.57;;;;;;;18.65;26.72;102390.59;16113110;19;129939;-40
2023/03/27 16:00:25;;;;;;;4.93;0.70;;;;;;;18.57;26.64;102390.81;16112652;19;129695;-45
2023/03/27 16:05:52;;;;;;;4.22;0.98;;;;;;;18.50;26.88;102395.47;16107474;19;130037;-42
2023/03/27 16:11:51;;;;;;;3.63;0.80;;;;;;;18.65;26.39;102387.81;16109800;19;129969;-40
2023/03/27 16:17:23;;;;;;;5.18;0.90;;;;;;;19.13;26.27;102394.25;16108101;19;129533;-41
2023/03/27 16:22:45;;;;;;;3.00;0.77;;;;;;;19.66;25.58;102398.88;16108696;19;129303;-43
2023/03/27 16:28:09;;;;;;;3.38;0.77;;;;;;;20.17;25.13;102400.03;16109378;19;130263;-42
2023/03/27 16:33:31;;;;;;;2.17;0.70;;;;;;;20.59;24.97;102397.66;16115938;19;130281;-44
2023/03/27 16:38:53;;;;;;;2.78;0.60;;;;;;;20.83;24.81;102408.22;16123623;19;129630;-43
2023/03/27 16:44:15;;;;;;;3.30;0.70;;;;;;;20.86;24.61;102419.75;16126024;19;129923;-41
2023/03/27 16:49:37;;;;;;;1.30;0.38;;;;;;;20.77;24.85;102418.31;16126401;19;130926;-47
2023/03/27 16:54:59;;;;;;;3.58;0.80;;;;;;;20.62;24.63;102428.88;16126264;19;132037;-42
2023/03/27 17:00:21;;;;;;;2.22;0.65;;;;;;;20.47;24.54;102432.78;16122037;19;129908;-42
2023/03/27 17:05:43;;;;;;;2.65;0.77;;;;;;;20.32;24.58;102437.78;16114256;19;130957;-41
2023/03/27 17:11:08;;;;;;;11.57;1.17;;;;;;;20.12;25.28;102436.78;16113933;19;131373;-42
2023/03/27 17:16:30;;;;;;;14.00;1.33;;;;;;;20.04;25.48;102444.53;16120888;19;131004;-43
2023/03/27 17:21:52;;;;;;;10.38;1.13;;;;;;;19.88;25.74;102443.91;16121918;19;129651;-41
2023/03/27 17:27:14;;;;;;;8.68;1.38;;;;;;;19.77;25.88;102444.59;16122728;19;129740;-41
2023/03/27 17:32:36;;;;;;;17.23;1.65;;;;;;;19.67;26.38;102450.56;16112334;19;130976;-42
2023/03/27 17:37:58;;;;;;;24.83;1.60;;;;;;;19.58;26.63;102458.25;16118219;19;132384;-41
2023/03/27 17:43:20;;;;;;;15.32;1.58;;;;;;;19.49;26.93;102470.66;16113075;19;136044;-42
2023/03/27 17:48:42;;;;;;;15.80;1.35;;;;;;;19.48;26.96;102480.94;16116436;19;129273;-40
2023/03/27 17:54:04;;;;;;;13.60;1.50;;;;;;;19.51;27.53;102493.53;16116625;19;130744;-42
2023/03/27 17:59:26;;;;;;;7.72;0.95;;;;;;;19.57;27.27;102487.09;16117257;19;131747;-41
2023/03/27 18:04:51;;;;;;;8.48;0.98;;;;;;;19.68;27.79;102494.81;16115412;19;129697;-41
2023/03/27 18:10:17;;;;;;;7.25;1.02;;;;;;;19.79;27.63;102497.97;16118075;19;129541;-42
2023/03/27 18:15:40;;;;;;;6.68;1.00;;;;;;;19.88;27.41;102510.56;16115874;19;131602;-41
2023/03/27 18:21:02;;;;;;;14.20;1.27;;;;;;;19.93;27.67;102513.56;16116735;19;129625;-43
2023/03/27 18:26:27;;;;;;;11.17;1.00;;;;;;;19.96;27.71;102515.88;16112276;19;129315;-42
2023/03/27 18:31:49;;;;;;;12.30;1.00;;;;;;;19.94;27.81;102529.13;16117543;19;130508;-41
2023/03/27 18:37:11;;;;;;;10.52;1.08;;;;;;;19.91;28.11;102525.94;16113398;19;130853;-42
2023/03/27 18:42:34;;;;;;;12.73;1.08;;;;;;;19.87;28.24;102528.28;16116372;19;129631;-42
2023/03/27 18:47:56;;;;;;;14.43;1.23;;;;;;;19.91;28.28;102523.16;16116097;19;131061;-41
2023/03/27 18:53:18;;;;;;;15.02;1.00;;;;;;;20.08;27.91;102535.56;16116127;19;129418;-41
2023/03/27 18:58:40;;;;;;;7.50;1.00;;;;;;;20.31;28.27;102534.22;16112792;19;135114;-45
2023/03/27 19:04:03;;;;;;;10.63;0.93;;;;;;;20.59;28.18;102542.22;16113474;19;129450;-41
2023/03/27 19:09:28;;;;;;;14.27;1.40;;;;;;;20.86;28.34;102547.69;16116423;19;130973;-41
2023/03/27 19:15:02;;;;;;;8.75;0.93;;;;;;;21.05;28.36;102550.56;16112721;19;129646;-44
2023/03/27 19:20:40;;;;;;;7.78;1.40;;;;;;;21.18;28.32;102547.72;16114614;19;131519;-42
2023/03/27 19:26:08;;;;;;;9.95;1.23;;;;;;;21.31;28.28;102545.91;16113777;19;130479;-41
2023/03/27 19:31:30;;;;;;;9.23;1.25;;;;;;;21.45;28.56;102555.88;16113143;19;129192;-42
2023/03/27 19:36:53;;;;;;;7.60;0.75;;;;;;;21.47;28.33;102553.72;16114033;19;129356;-42
2023/03/27 19:42:15;;;;;;;7.43;1.17;;;;;;;21.41;28.61;102549.06;16113178;19;136377;-42
2023/03/27 19:47:37;;;;;;;15.43;1.40;;;;;;;21.29;28.66;102550.88;16112529;19;130828;-43
2023/03/27 19:52:59;;;;;;;18.77;1.67;;;;;;;21.15;28.83;102538.97;16115958;19;130712;-41
2023/03/27 19:58:29;;;;;;;8.10;0.95;;;;;;;20.98;29.16;102539.53;16113768;19;131261;-42
2023/03/27 20:03:51;;;;;;;11.52;1.00;;;;;;;20.82;29.69;102545.59;16110422;19;130665;-42
2023/03/27 20:09:13;;;;;;;6.55;0.80;;;;;;;20.68;30.11;102558.66;16121030;19;129450;-42
2023/03/27 20:14:35;;;;;;;10.95;0.88;;;;;;;20.54;29.95;102558.75;16126967;19;133412;-41
2023/03/27 20:19:59;;;;;;;10.82;1.17;;;;;;;20.43;30.21;102559.44;16125617;19;130729;-41
2023/03/27 20:25:21;;;;;;;5.65;0.93;;;;;;;20.32;30.57;102572.06;16124732;19;129764;-41
2023/03/27 20:30:43;;;;;;;15.65;1.50;;;;;;;20.22;31.07;102583.63;16123070;19;130049;-44
2023/03/27 20:36:05;;;;;;;13.52;1.45;;;;;;;20.17;31.37;102580.66;16122245;19;129853;-41
2023/03/27 20:41:29;;;;;;;7.40;1.20;;;;;;;20.11;31.26;102578.72;16123877;19;131297;-42
2023/03/27 20:46:51;;;;;;;8.10;1.40;;;;;;;20.06;31.62;102576.59;16127280;19;129587;-41
2023/03/27 20:52:18;;;;;;;8.13;0.97;;;;;;;20.01;31.84;102583.88;16126313;19;129747;-41
2023/03/27 20:57:41;;;;;;;9.25;1.45;;;;;;;19.97;31.56;102584.25;16124571;19;131806;-41
2023/03/27 21:03:04;;;;;;;10.82;1.10;;;;;;;19.94;31.80;102589.41;16126119;19;130245;-45
2023/03/27 21:08:27;;;;;;;11.35;0.90;;;;;;;19.86;32.35;102592.41;16124570;19;130871;-41
2023/03/27 21:13:49;;;;;;;5.70;0.90;;;;;;;19.76;32.12;102587.28;16123172;19;129960;-41
2023/03/27 21:19:11;;;;;;;9.68;0.90;;;;;;;19.66;32.10;102587.69;16122569;19;129246;-43
2023/03/27 21:24:32;;;;;;;5.80;0.73;;;;;;;19.56;32.32;102588.13;16120981;19;130224;-41
2023/03/27 21:29:55;;;;;;;10.48;1.13;;;;;;;19.50;32.52;102591.75;16121894;19;129463;-41
2023/03/27 21:35:16;;;;;;;8.25;0.70;;;;;;;19.45;32.11;102597.06;16120026;19;131835;-44
2023/03/27 21:40:39;;;;;;;4.22;0.73;;;;;;;19.38;32.41;102600.69;16121310;19;130657;-43
2023/03/27 21:46:02;;;;;;;4.25;0.82;;;;;;;19.32;32.38;102595.97;16116068;19;130461;-44
2023/03/27 21:51:27;;;;;;;3.63;0.68;;;;;;;19.27;32.48;102595.75;16114705;19;131101;-45
2023/03/27 21:56:49;;;;;;;4.50;0.80;;;;;;;19.22;32.69;102612.16;16115996;19;130427;-43
2023/03/27 22:02:11;;;;;;;2.20;0.60;;;;;;;19.18;32.73;102597.00;16118399;19;130096;-43
2023/03/27 22:07:33;;;;;;;3.65;0.68;;;;;;;19.15;32.73;102608.50;16119053;19;130918;-41
2023/03/27 22:12:55;;;;;;;4.90;0.50;;;;;;;19.11;32.56;102607.19;16119222;19;130511;-42
2023/03/27 22:18:17;;;;;;;3.95;0.50;;;;;;;19.06;32.63;102608.69;16114940;19;130697;-43
2023/03/27 22:23:40;;;;;;;3.80;0.60;;;;;;;19.03;32.70;102608.25;16115207;19;130176;-41
2023/03/27 22:29:02;;;;;;;6.00;0.75;;;;;;;19.00;32.53;102612.28;16115511;19;129408;-43
2023/03/27 22:34:26;;;;;;;3.85;0.70;;;;;;;18.96;32.97;102616.53;16113303;19;130579;-41
2023/03/27 22:39:47;;;;;;;3.50;0.52;;;;;;;18.93;33.00;102614.19;16114309;19;131358;-43
2023/03/27 22:45:10;;;;;;;3.67;0.80;;;;;;;18.90;32.81;102622.91;16114303;19;129678;-43
2023/03/27 22:50:31;;;;;;;2.47;0.73;;;;;;;18.86;33.01;102622.47;16113722;19;130936;-41
2023/03/27 22:55:55;;;;;;;2.35;0.60;;;;;;;18.84;32.79;102623.72;16116242;19;129862;-44
2023/03/27 23:01:17;;;;;;;1.35;0.40;;;;;;;18.81;32.74;102618.63;16123309;19;130264;-42
2023/03/27 23:06:39;;;;;;;2.35;0.60;;;;;;;18.77;32.89;102624.56;16107013;19;129697;-41
2023/03/27 23:12:01;;;;;;;3.67;0.65;;;;;;;18.73;33.00;102620.50;16113481;19;129468;-42
2023/03/27 23:17:23;;;;;;;3.25;0.50;;;;;;;18.71;32.95;102625.38;16114221;19;130046;-42
2023/03/27 23:22:45;;;;;;;2.15;0.50;;;;;;;18.69;33.02;102621.97;16115949;19;129619;-41
2023/03/27 23:28:07;;;;;;;2.17;0.50;;;;;;;18.65;33.25;102623.44;16114602;19;131407;-41
2023/03/27 23:33:34;;;;;;;2.95;0.50;;;;;;;18.63;33.03;102625.56;16113141;19;130173;-41
2023/03/27 23:38:56;;;;;;;1.42;0.30;;;;;;;18.57;33.06;102624.47;16113440;19;130316;-43
2023/03/27 23:44:18;;;;;;;1.35;0.40;;;;;;;18.55;33.02;102634.91;16108037;19;129881;-41
2023/03/27 23:49:41;;;;;;;2.10;0.60;;;;;;;18.54;33.23;102635.13;16109761;19;129858;-44
2023/03/27 23:55:03;;;;;;;2.50;0.50;;;;;;;18.51;33.03;102635.50;16113071;19;131115;-40
